Saturday, January 20, 2018, 1:22 AM GMT
Back to Local

CWEW, L'Assomption

Location: , , Canada Lat: 45.817
Local Time: 1:22 AM GMT ( 1:22 GMT) Lon: -73.433
Time Zone: GMT Elev: 68 ft

Show me the last for .
Show Decoded

2018-01-20 01:00 METAR CWEW 200100Z AUTO 21009KT M01/M03 RMK AO1 SOG 10 8015 SLP082 T10061034 =
2018-01-20 00:00 METAR CWEW 200000Z AUTO 20005KT M01/M03 RMK AO1 SOG 10 8010 SLP090 T10121028 =
2018-01-19 23:00 METAR CWEW 192300Z AUTO 22005KT M02/M04 RMK AO1 SOG 10 6006 SLP098 T10191038 =
2018-01-19 22:00 METAR CWEW 192200Z AUTO 22007KT M02/M05 RMK AO1 SOG 10 6010 SLP098 T10201046 =
2018-01-19 21:00 METAR CWEW 192100Z AUTO 21006KT M02/M05 RMK AO1 SOG 10 6011 SLP101 T10211050 =
2018-01-19 20:00 METAR CWEW 192000Z AUTO 22008KT M02/M05 RMK AO1 SOG 10 6014 SLP104 T10151050 =
2018-01-19 19:00 METAR CWEW 191900Z AUTO 22009KT M03/M06 RMK AO1 SOG 11 6019 SLP108 T10271056 =
2018-01-19 18:00 METAR CWEW 191800Z AUTO 23008KT M03/M06 RMK AO1 SOG 11 8018 SLP112 T10271061 =
2018-01-19 17:00 METAR CWEW 191700Z AUTO 23008KT M03/M06 RMK AO1 SOG 11 8008 SLP118 T10291059 =
2018-01-19 16:00 METAR CWEW 191600Z AUTO 22006KT M03/M06 RMK AO1 SOG 11 8001 SLP127 T10321058 =
2018-01-19 15:00 METAR CWEW 191500Z AUTO 23009KT M03/M06 RMK AO1 SOG 11 3002 SLP130 T10341058 =
2018-01-19 14:00 METAR CWEW 191400Z AUTO 22008KT M04/M05 RMK AO1 SOG 11 0000 SLP126 T10351054 =
2018-01-19 13:00 METAR CWEW 191300Z AUTO 22008KT M04/M06 RMK AO1 SOG 11 3001 SLP128 T10381056 =
2018-01-19 12:00 METAR CWEW 191200Z AUTO 23006KT M04/M07 RMK AO1 SOG 11 3002 SLP128 T10431069 =
2018-01-19 11:00 METAR CWEW 191100Z AUTO 22006KT M04/M07 RMK AO1 SOG 11 6002 SLP126 T10441070 =
2018-01-19 10:00 METAR CWEW 191000Z AUTO 23005KT M05/M07 RMK AO1 SOG 11 5004 SLP127 T10461071 =
2018-01-19 09:00 METAR CWEW 190900Z AUTO 22005KT M05/M07 RMK AO1 SOG 11 8006 SLP126 T10481074 =
2018-01-19 08:00 METAR CWEW 190800Z AUTO 21005KT M05/M07 RMK AO1 SOG 11 6008 SLP128 T10481073 =
2018-01-19 07:00 METAR CWEW 190700Z AUTO 23006KT M05/M08 RMK AO1 SOG 11 8003 SLP131 T10471076 =
2018-01-19 06:00 METAR CWEW 190600Z AUTO 22007KT M05/M08 RMK AO1 SOG 11 8003 SLP132 T10481077 =
2018-01-19 05:00 METAR CWEW 190500Z AUTO 22005KT M05/M08 RMK AO1 SOG 11 2003 SLP136 T10481077 =
2018-01-19 04:00 METAR CWEW 190400Z AUTO 23007KT M05/M08 RMK AO1 SOG 11 0001 SLP134 T10461077 =
2018-01-19 03:00 METAR CWEW 190300Z AUTO 24007KT M04/M08 RMK AO1 SOG 11 3001 SLP135 T10351077 =
2018-01-19 02:00 METAR CWEW 190200Z AUTO 23007KT M04/M08 RMK AO1 SOG 11 1001 SLP133 T10441075 =

Support USWX by starting your Amazon purchase here.